sensor_id;sensor_type;location;lat;lon;timestamp;temperature;humidity
2973;DHT22;1496;51.404;7.232;2024-03-02T00:01:26;7.90;1.00
2973;DHT22;1496;51.404;7.232;2024-03-02T00:03:52;7.90;1.00
2973;DHT22;1496;51.404;7.232;2024-03-02T00:06:20;7.90;1.00
2973;DHT22;1496;51.404;7.232;2024-03-02T00:08:46;7.90;1.00
2973;DHT22;1496;51.404;7.232;2024-03-02T00:11:48;7.80;1.00
2973;DHT22;1496;51.404;7.232;2024-03-02T00:14:15;7.90;1.00
2973;DHT22;1496;51.404;7.232;2024-03-02T00:16:41;7.90;1.00
2973;DHT22;1496;51.404;7.232;2024-03-02T00:19:07;7.90;1.00
2973;DHT22;1496;51.404;7.232;2024-03-02T00:21:34;7.80;1.00
2973;DHT22;1496;51.404;7.232;2024-03-02T00:24:01;7.70;1.00
2973;DHT22;1496;51.404;7.232;2024-03-02T00:26:30;7.60;1.00
2973;DHT22;1496;51.404;7.232;2024-03-02T00:28:56;7.60;1.00
2973;DHT22;1496;51.404;7.232;2024-03-02T00:31:22;7.50;1.00
2973;DHT22;1496;51.404;7.232;2024-03-02T00:33:48;7.60;1.00
2973;DHT22;1496;51.404;7.232;2024-03-02T00:36:25;7.70;1.00
2973;DHT22;1496;51.404;7.232;2024-03-02T00:38:52;7.60;1.00
2973;DHT22;1496;51.404;7.232;2024-03-02T00:41:29;7.60;1.00
2973;DHT22;1496;51.404;7.232;2024-03-02T00:43:58;7.60;1.00
2973;DHT22;1496;51.404;7.232;2024-03-02T00:46:24;7.60;1.00
2973;DHT22;1496;51.404;7.232;2024-03-02T00:48:54;7.70;1.00
2973;DHT22;1496;51.404;7.232;2024-03-02T00:51:21;7.70;1.00
2973;DHT22;1496;51.404;7.232;2024-03-02T00:53:48;7.80;1.00
2973;DHT22;1496;51.404;7.232;2024-03-02T00:56:14;7.90;1.00
2973;DHT22;1496;51.404;7.232;2024-03-02T00:58:40;7.90;1.00
2973;DHT22;1496;51.404;7.232;2024-03-02T01:01:06;7.90;1.00
2973;DHT22;1496;51.404;7.232;2024-03-02T01:03:33;8.00;1.00
2973;DHT22;1496;51.404;7.232;2024-03-02T01:05:59;8.00;1.00
2973;DHT22;1496;51.404;7.232;2024-03-02T01:08:25;8.00;1.00
2973;DHT22;1496;51.404;7.232;2024-03-02T01:10:54;8.00;1.00
2973;DHT22;1496;51.404;7.232;2024-03-02T01:13:22;8.10;1.00
2973;DHT22;1496;51.404;7.232;2024-03-02T01:15:48;8.00;1.00
2973;DHT22;1496;51.404;7.232;2024-03-02T01:18:14;8.10;1.00
2973;DHT22;1496;51.404;7.232;2024-03-02T01:20:39;8.00;1.00
2973;DHT22;1496;51.404;7.232;2024-03-02T01:23:05;7.90;1.00
2973;DHT22;1496;51.404;7.232;2024-03-02T01:25:31;7.90;1.00
2973;DHT22;1496;51.404;7.232;2024-03-02T01:27:57;7.90;1.00
2973;DHT22;1496;51.404;7.232;2024-03-02T01:30:22;8.00;1.00
2973;DHT22;1496;51.404;7.232;2024-03-02T01:32:48;8.10;1.00
2973;DHT22;1496;51.404;7.232;2024-03-02T01:35:13;8.10;1.00
2973;DHT22;1496;51.404;7.232;2024-03-02T01:37:40;8.00;1.00
2973;DHT22;1496;51.404;7.232;2024-03-02T01:40:07;8.10;1.00
2973;DHT22;1496;51.404;7.232;2024-03-02T01:42:38;8.00;1.00
2973;DHT22;1496;51.404;7.232;2024-03-02T01:45:05;8.00;1.00
2973;DHT22;1496;51.404;7.232;2024-03-02T01:47:31;7.90;1.00
2973;DHT22;1496;51.404;7.232;2024-03-02T01:49:58;7.90;1.00
2973;DHT22;1496;51.404;7.232;2024-03-02T01:52:24;7.90;1.00
2973;DHT22;1496;51.404;7.232;2024-03-02T01:54:50;7.80;1.00
2973;DHT22;1496;51.404;7.232;2024-03-02T01:57:17;7.90;1.00
2973;DHT22;1496;51.404;7.232;2024-03-02T01:59:43;8.00;1.00
2973;DHT22;1496;51.404;7.232;2024-03-02T02:02:13;7.90;1.00
2973;DHT22;1496;51.404;7.232;2024-03-02T02:04:38;8.00;1.00
2973;DHT22;1496;51.404;7.232;2024-03-02T02:07:04;8.10;1.00
2973;DHT22;1496;51.404;7.232;2024-03-02T02:09:33;8.20;1.00
2973;DHT22;1496;51.404;7.232;2024-03-02T02:11:59;8.20;1.00
2973;DHT22;1496;51.404;7.232;2024-03-02T02:14:24;8.20;1.00
2973;DHT22;1496;51.404;7.232;2024-03-02T02:16:50;8.20;1.00
2973;DHT22;1496;51.404;7.232;2024-03-02T02:19:17;8.30;1.00
2973;DHT22;1496;51.404;7.232;2024-03-02T02:21:43;8.20;1.00
2973;DHT22;1496;51.404;7.232;2024-03-02T02:24:11;8.20;1.00
2973;DHT22;1496;51.404;7.232;2024-03-02T02:26:38;8.30;1.00
2973;DHT22;1496;51.404;7.232;2024-03-02T02:29:04;8.30;1.00
2973;DHT22;1496;51.404;7.232;2024-03-02T02:31:40;8.20;1.00
2973;DHT22;1496;51.404;7.232;2024-03-02T02:34:06;8.10;1.00
2973;DHT22;1496;51.404;7.232;2024-03-02T02:36:32;8.10;1.00
2973;DHT22;1496;51.404;7.232;2024-03-02T02:39:02;8.00;1.00
2973;DHT22;1496;51.404;7.232;2024-03-02T02:41:32;7.90;1.00
2973;DHT22;1496;51.404;7.232;2024-03-02T02:43:58;8.00;1.00
2973;DHT22;1496;51.404;7.232;2024-03-02T02:46:24;8.00;1.00
2973;DHT22;1496;51.404;7.232;2024-03-02T02:48:50;8.00;1.00
2973;DHT22;1496;51.404;7.232;2024-03-02T02:51:17;8.10;1.00
2973;DHT22;1496;51.404;7.232;2024-03-02T02:53:42;8.00;1.00
2973;DHT22;1496;51.404;7.232;2024-03-02T02:56:08;8.00;1.00
2973;DHT22;1496;51.404;7.232;2024-03-02T02:58:34;8.00;1.00
2973;DHT22;1496;51.404;7.232;2024-03-02T03:01:00;8.00;1.00
2973;DHT22;1496;51.404;7.232;2024-03-02T03:03:25;8.00;1.00
2973;DHT22;1496;51.404;7.232;2024-03-02T03:05:51;8.10;1.00
2973;DHT22;1496;51.404;7.232;2024-03-02T03:08:16;8.00;1.00
2973;DHT22;1496;51.404;7.232;2024-03-02T03:10:42;8.00;1.00
2973;DHT22;1496;51.404;7.232;2024-03-02T03:13:09;8.10;1.00
2973;DHT22;1496;51.404;7.232;2024-03-02T03:15:35;8.10;1.00
2973;DHT22;1496;51.404;7.232;2024-03-02T03:18:02;8.10;1.00
2973;DHT22;1496;51.404;7.232;2024-03-02T03:20:30;8.00;1.00
2973;DHT22;1496;51.404;7.232;2024-03-02T03:22:56;8.10;1.00
2973;DHT22;1496;51.404;7.232;2024-03-02T03:25:22;8.20;1.00
2973;DHT22;1496;51.404;7.232;2024-03-02T03:27:48;8.20;1.00
2973;DHT22;1496;51.404;7.232;2024-03-02T03:30:14;8.30;1.00
2973;DHT22;1496;51.404;7.232;2024-03-02T03:32:40;8.30;1.00
2973;DHT22;1496;51.404;7.232;2024-03-02T03:35:06;8.30;1.00
2973;DHT22;1496;51.404;7.232;2024-03-02T03:37:32;8.20;1.00
2973;DHT22;1496;51.404;7.232;2024-03-02T03:40:02;8.20;1.00
2973;DHT22;1496;51.404;7.232;2024-03-02T03:42:32;8.10;1.00
2973;DHT22;1496;51.404;7.232;2024-03-02T03:44:58;8.10;1.00
2973;DHT22;1496;51.404;7.232;2024-03-02T03:47:23;8.10;1.00
2973;DHT22;1496;51.404;7.232;2024-03-02T03:49:49;8.10;1.00
2973;DHT22;1496;51.404;7.232;2024-03-02T03:52:15;8.00;1.00
2973;DHT22;1496;51.404;7.232;2024-03-02T03:54:41;8.10;1.00
2973;DHT22;1496;51.404;7.232;2024-03-02T03:57:08;8.00;1.00
2973;DHT22;1496;51.404;7.232;2024-03-02T03:59:34;7.90;1.00
2973;DHT22;1496;51.404;7.232;2024-03-02T04:01:59;7.80;1.00
2973;DHT22;1496;51.404;7.232;2024-03-02T04:04:25;7.80;1.00
2973;DHT22;1496;51.404;7.232;2024-03-02T04:06:51;7.80;1.00
2973;DHT22;1496;51.404;7.232;2024-03-02T04:09:16;8.00;1.00
2973;DHT22;1496;51.404;7.232;2024-03-02T04:11:43;8.10;1.00
2973;DHT22;1496;51.404;7.232;2024-03-02T04:14:08;8.10;1.00
2973;DHT22;1496;51.404;7.232;2024-03-02T04:16:34;8.00;1.00
2973;DHT22;1496;51.404;7.232;2024-03-02T04:19:00;7.90;1.00
2973;DHT22;1496;51.404;7.232;2024-03-02T04:21:25;7.90;1.00
2973;DHT22;1496;51.404;7.232;2024-03-02T04:23:51;7.90;1.00
2973;DHT22;1496;51.404;7.232;2024-03-02T04:26:17;7.90;1.00
2973;DHT22;1496;51.404;7.232;2024-03-02T04:28:50;7.90;1.00
2973;DHT22;1496;51.404;7.232;2024-03-02T04:31:16;7.90;1.00
2973;DHT22;1496;51.404;7.232;2024-03-02T04:33:55;8.00;1.00
2973;DHT22;1496;51.404;7.232;2024-03-02T04:36:20;8.10;1.00
2973;DHT22;1496;51.404;7.232;2024-03-02T04:38:46;8.00;1.00
2973;DHT22;1496;51.404;7.232;2024-03-02T04:41:12;8.00;1.00
2973;DHT22;1496;51.404;7.232;2024-03-02T04:43:38;7.90;1.00
2973;DHT22;1496;51.404;7.232;2024-03-02T04:46:05;7.80;1.00
2973;DHT22;1496;51.404;7.232;2024-03-02T04:48:31;7.60;1.00
2973;DHT22;1496;51.404;7.232;2024-03-02T04:50:56;7.60;1.00
2973;DHT22;1496;51.404;7.232;2024-03-02T04:53:22;7.60;1.00
2973;DHT22;1496;51.404;7.232;2024-03-02T04:55:48;7.60;1.00
2973;DHT22;1496;51.404;7.232;2024-03-02T04:58:19;7.50;1.00
2973;DHT22;1496;51.404;7.232;2024-03-02T05:00:45;7.50;1.00
2973;DHT22;1496;51.404;7.232;2024-03-02T05:03:16;7.40;1.00
2973;DHT22;1496;51.404;7.232;2024-03-02T05:05:42;7.40;1.00
2973;DHT22;1496;51.404;7.232;2024-03-02T05:08:08;7.40;1.00
2973;DHT22;1496;51.404;7.232;2024-03-02T05:10:42;7.30;1.00
2973;DHT22;1496;51.404;7.232;2024-03-02T05:13:08;7.20;1.00
2973;DHT22;1496;51.404;7.232;2024-03-02T05:15:34;7.20;1.00
2973;DHT22;1496;51.404;7.232;2024-03-02T05:17:59;7.20;1.00
2973;DHT22;1496;51.404;7.232;2024-03-02T05:20:25;7.30;1.00
2973;DHT22;1496;51.404;7.232;2024-03-02T05:22:51;7.40;1.00
2973;DHT22;1496;51.404;7.232;2024-03-02T05:25:16;7.40;1.00
2973;DHT22;1496;51.404;7.232;2024-03-02T05:27:42;7.50;1.00
2973;DHT22;1496;51.404;7.232;2024-03-02T05:30:08;7.50;1.00
2973;DHT22;1496;51.404;7.232;2024-03-02T05:32:34;7.50;1.00
2973;DHT22;1496;51.404;7.232;2024-03-02T05:34:59;7.60;1.00
2973;DHT22;1496;51.404;7.232;2024-03-02T05:37:25;7.60;1.00
2973;DHT22;1496;51.404;7.232;2024-03-02T05:39:51;7.60;1.00
2973;DHT22;1496;51.404;7.232;2024-03-02T05:42:16;7.50;1.00
2973;DHT22;1496;51.404;7.232;2024-03-02T05:44:42;7.50;1.00
2973;DHT22;1496;51.404;7.232;2024-03-02T05:47:07;7.40;1.00
2973;DHT22;1496;51.404;7.232;2024-03-02T05:49:36;7.40;1.00
2973;DHT22;1496;51.404;7.232;2024-03-02T05:52:06;7.40;1.00
2973;DHT22;1496;51.404;7.232;2024-03-02T05:54:32;7.50;1.00
2973;DHT22;1496;51.404;7.232;2024-03-02T05:56:58;7.40;1.00
2973;DHT22;1496;51.404;7.232;2024-03-02T05:59:42;7.40;1.00
2973;DHT22;1496;51.404;7.232;2024-03-02T06:02:07;7.40;1.00
2973;DHT22;1496;51.404;7.232;2024-03-02T06:04:33;7.40;1.00
2973;DHT22;1496;51.404;7.232;2024-03-02T06:07:06;7.30;1.00
2973;DHT22;1496;51.404;7.232;2024-03-02T06:09:32;7.40;1.00
2973;DHT22;1496;51.404;7.232;2024-03-02T06:11:58;7.30;1.00
2973;DHT22;1496;51.404;7.232;2024-03-02T06:14:23;7.30;1.00
2973;DHT22;1496;51.404;7.232;2024-03-02T06:16:49;7.20;1.00
2973;DHT22;1496;51.404;7.232;2024-03-02T06:19:15;7.20;1.00
2973;DHT22;1496;51.404;7.232;2024-03-02T06:21:40;7.20;1.00
2973;DHT22;1496;51.404;7.232;2024-03-02T06:24:06;7.20;1.00
2973;DHT22;1496;51.404;7.232;2024-03-02T06:26:32;7.20;1.00
2973;DHT22;1496;51.404;7.232;2024-03-02T06:28:57;7.30;1.00
2973;DHT22;1496;51.404;7.232;2024-03-02T06:31:23;7.30;1.00
2973;DHT22;1496;51.404;7.232;2024-03-02T06:33:49;7.40;1.00
2973;DHT22;1496;51.404;7.232;2024-03-02T06:36:14;7.40;1.00
2973;DHT22;1496;51.404;7.232;2024-03-02T06:38:42;7.30;1.00
2973;DHT22;1496;51.404;7.232;2024-03-02T06:41:08;7.40;1.00
2973;DHT22;1496;51.404;7.232;2024-03-02T06:43:33;7.40;1.00
2973;DHT22;1496;51.404;7.232;2024-03-02T06:45:59;7.30;1.00
2973;DHT22;1496;51.404;7.232;2024-03-02T06:48:27;7.30;1.00
2973;DHT22;1496;51.404;7.232;2024-03-02T06:50:55;7.40;1.00
2973;DHT22;1496;51.404;7.232;2024-03-02T06:53:21;7.40;1.00
2973;DHT22;1496;51.404;7.232;2024-03-02T06:55:48;7.30;1.00
2973;DHT22;1496;51.404;7.232;2024-03-02T06:58:13;7.30;1.00
2973;DHT22;1496;51.404;7.232;2024-03-02T07:00:41;7.30;1.00
2973;DHT22;1496;51.404;7.232;2024-03-02T07:03:06;7.20;1.00
2973;DHT22;1496;51.404;7.232;2024-03-02T07:05:32;7.20;1.00
2973;DHT22;1496;51.404;7.232;2024-03-02T07:07:58;7.20;1.00
2973;DHT22;1496;51.404;7.232;2024-03-02T07:10:23;7.30;1.00
2973;DHT22;1496;51.404;7.232;2024-03-02T07:12:49;7.30;1.00
2973;DHT22;1496;51.404;7.232;2024-03-02T07:15:15;7.40;1.00
2973;DHT22;1496;51.404;7.232;2024-03-02T07:17:55;7.40;1.00
2973;DHT22;1496;51.404;7.232;2024-03-02T07:20:21;7.50;1.00
2973;DHT22;1496;51.404;7.232;2024-03-02T07:22:47;7.40;1.00
2973;DHT22;1496;51.404;7.232;2024-03-02T07:25:13;7.50;1.00
2973;DHT22;1496;51.404;7.232;2024-03-02T07:27:39;7.60;1.00
2973;DHT22;1496;51.404;7.232;2024-03-02T07:30:05;7.80;1.00
2973;DHT22;1496;51.404;7.232;2024-03-02T07:32:31;7.70;1.00
2973;DHT22;1496;51.404;7.232;2024-03-02T07:34:57;7.80;1.00
2973;DHT22;1496;51.404;7.232;2024-03-02T07:37:24;7.90;1.00
2973;DHT22;1496;51.404;7.232;2024-03-02T07:39:50;8.00;1.00
2973;DHT22;1496;51.404;7.232;2024-03-02T07:42:16;8.10;1.00
2973;DHT22;1496;51.404;7.232;2024-03-02T07:44:44;8.20;1.00
2973;DHT22;1496;51.404;7.232;2024-03-02T07:47:10;8.20;1.00
2973;DHT22;1496;51.404;7.232;2024-03-02T07:49:36;8.30;1.00
2973;DHT22;1496;51.404;7.232;2024-03-02T07:52:02;8.30;1.00
2973;DHT22;1496;51.404;7.232;2024-03-02T07:54:28;8.40;1.00
2973;DHT22;1496;51.404;7.232;2024-03-02T07:56:53;8.50;1.00
2973;DHT22;1496;51.404;7.232;2024-03-02T07:59:19;8.50;1.00
2973;DHT22;1496;51.404;7.232;2024-03-02T08:01:46;8.40;1.00
2973;DHT22;1496;51.404;7.232;2024-03-02T08:04:12;8.40;1.00
2973;DHT22;1496;51.404;7.232;2024-03-02T08:06:37;8.40;1.00
2973;DHT22;1496;51.404;7.232;2024-03-02T08:09:03;8.40;1.00
2973;DHT22;1496;51.404;7.232;2024-03-02T08:11:34;8.50;1.00
2973;DHT22;1496;51.404;7.232;2024-03-02T08:14:00;8.50;1.00
2973;DHT22;1496;51.404;7.232;2024-03-02T08:16:26;8.60;1.00
2973;DHT22;1496;51.404;7.232;2024-03-02T08:18:52;8.70;1.00
2973;DHT22;1496;51.404;7.232;2024-03-02T08:21:18;8.90;1.00
2973;DHT22;1496;51.404;7.232;2024-03-02T08:23:55;8.80;1.00
2973;DHT22;1496;51.404;7.232;2024-03-02T08:26:21;8.90;1.00
2973;DHT22;1496;51.404;7.232;2024-03-02T08:28:47;9.10;1.00
2973;DHT22;1496;51.404;7.232;2024-03-02T08:31:13;9.10;1.00
2973;DHT22;1496;51.404;7.232;2024-03-02T08:33:38;9.10;1.00
2973;DHT22;1496;51.404;7.232;2024-03-02T08:36:04;9.20;1.00
2973;DHT22;1496;51.404;7.232;2024-03-02T08:38:30;9.10;1.00
2973;DHT22;1496;51.404;7.232;2024-03-02T08:40:56;9.20;1.00
2973;DHT22;1496;51.404;7.232;2024-03-02T08:43:22;9.20;1.00
2973;DHT22;1496;51.404;7.232;2024-03-02T08:45:48;9.30;1.00
2973;DHT22;1496;51.404;7.232;2024-03-02T08:48:14;9.40;1.00
2973;DHT22;1496;51.404;7.232;2024-03-02T08:50:39;9.40;1.00
2973;DHT22;1496;51.404;7.232;2024-03-02T08:53:05;9.50;1.00
2973;DHT22;1496;51.404;7.232;2024-03-02T08:55:31;9.50;1.00
2973;DHT22;1496;51.404;7.232;2024-03-02T08:57:56;9.70;1.00
2973;DHT22;1496;51.404;7.232;2024-03-02T09:00:23;9.70;1.00
2973;DHT22;1496;51.404;7.232;2024-03-02T09:02:49;9.90;1.00
2973;DHT22;1496;51.404;7.232;2024-03-02T09:05:14;9.90;1.00
2973;DHT22;1496;51.404;7.232;2024-03-02T09:07:40;10.00;1.00
2973;DHT22;1496;51.404;7.232;2024-03-02T09:10:07;10.10;1.00
2973;DHT22;1496;51.404;7.232;2024-03-02T09:12:33;10.20;1.00
2973;DHT22;1496;51.404;7.232;2024-03-02T09:15:00;10.20;1.00
2973;DHT22;1496;51.404;7.232;2024-03-02T09:17:26;10.20;1.00
2973;DHT22;1496;51.404;7.232;2024-03-02T09:19:52;10.30;1.00
2973;DHT22;1496;51.404;7.232;2024-03-02T09:22:21;10.30;1.00
2973;DHT22;1496;51.404;7.232;2024-03-02T09:24:47;10.30;1.00
2973;DHT22;1496;51.404;7.232;2024-03-02T09:27:13;10.30;1.00
2973;DHT22;1496;51.404;7.232;2024-03-02T09:29:38;10.40;1.00
2973;DHT22;1496;51.404;7.232;2024-03-02T09:32:05;10.30;1.00
2973;DHT22;1496;51.404;7.232;2024-03-02T09:34:31;10.40;1.00
2973;DHT22;1496;51.404;7.232;2024-03-02T09:36:58;10.40;1.00
2973;DHT22;1496;51.404;7.232;2024-03-02T09:39:24;10.40;1.00
2973;DHT22;1496;51.404;7.232;2024-03-02T09:41:51;10.40;1.00
2973;DHT22;1496;51.404;7.232;2024-03-02T09:44:17;10.50;1.00
2973;DHT22;1496;51.404;7.232;2024-03-02T09:46:43;10.50;1.00
2973;DHT22;1496;51.404;7.232;2024-03-02T09:49:10;10.50;1.00
2973;DHT22;1496;51.404;7.232;2024-03-02T09:51:37;10.70;1.00
2973;DHT22;1496;51.404;7.232;2024-03-02T09:54:05;10.80;1.00
2973;DHT22;1496;51.404;7.232;2024-03-02T09:56:32;10.90;1.00
2973;DHT22;1496;51.404;7.232;2024-03-02T09:58:58;11.00;1.00
2973;DHT22;1496;51.404;7.232;2024-03-02T10:01:24;11.10;1.00
2973;DHT22;1496;51.404;7.232;2024-03-02T10:03:50;11.10;1.00
2973;DHT22;1496;51.404;7.232;2024-03-02T10:06:23;11.20;1.00
2973;DHT22;1496;51.404;7.232;2024-03-02T10:08:49;11.30;1.00
2973;DHT22;1496;51.404;7.232;2024-03-02T10:11:32;11.40;1.00
2973;DHT22;1496;51.404;7.232;2024-03-02T10:14:06;11.30;1.00
2973;DHT22;1496;51.404;7.232;2024-03-02T10:16:40;11.40;1.00
2973;DHT22;1496;51.404;7.232;2024-03-02T10:21:50;11.60;1.00
2973;DHT22;1496;51.404;7.232;2024-03-02T10:24:16;11.50;1.00
2973;DHT22;1496;51.404;7.232;2024-03-02T10:26:42;11.40;1.00
2973;DHT22;1496;51.404;7.232;2024-03-02T10:29:09;11.50;1.00
2973;DHT22;1496;51.404;7.232;2024-03-02T10:31:37;11.70;1.00
2973;DHT22;1496;51.404;7.232;2024-03-02T10:34:03;11.60;1.00
2973;DHT22;1496;51.404;7.232;2024-03-02T10:36:29;11.60;1.00
2973;DHT22;1496;51.404;7.232;2024-03-02T10:38:58;11.50;1.00
2973;DHT22;1496;51.404;7.232;2024-03-02T10:41:26;11.60;1.00
2973;DHT22;1496;51.404;7.232;2024-03-02T10:43:52;11.70;1.00
2973;DHT22;1496;51.404;7.232;2024-03-02T10:46:27;11.90;1.00
2973;DHT22;1496;51.404;7.232;2024-03-02T10:48:54;11.90;1.00
2973;DHT22;1496;51.404;7.232;2024-03-02T10:51:20;11.90;1.00
2973;DHT22;1496;51.404;7.232;2024-03-02T10:53:45;12.00;1.00
2973;DHT22;1496;51.404;7.232;2024-03-02T10:56:16;12.10;1.00
2973;DHT22;1496;51.404;7.232;2024-03-02T10:58:45;12.10;1.00
2973;DHT22;1496;51.404;7.232;2024-03-02T11:01:12;12.30;1.00
2973;DHT22;1496;51.404;7.232;2024-03-02T11:03:39;12.40;1.00
2973;DHT22;1496;51.404;7.232;2024-03-02T11:06:08;12.40;1.00
2973;DHT22;1496;51.404;7.232;2024-03-02T11:08:35;12.50;1.00
2973;DHT22;1496;51.404;7.232;2024-03-02T11:11:07;12.60;1.00
2973;DHT22;1496;51.404;7.232;2024-03-02T11:13:38;12.50;1.00
2973;DHT22;1496;51.404;7.232;2024-03-02T11:16:15;12.60;1.00
2973;DHT22;1496;51.404;7.232;2024-03-02T11:18:43;12.60;1.00
2973;DHT22;1496;51.404;7.232;2024-03-02T11:21:09;12.60;1.00
2973;DHT22;1496;51.404;7.232;2024-03-02T11:23:35;12.50;1.00
2973;DHT22;1496;51.404;7.232;2024-03-02T11:26:20;12.60;1.00
2973;DHT22;1496;51.404;7.232;2024-03-02T11:28:46;12.60;1.00
2973;DHT22;1496;51.404;7.232;2024-03-02T11:31:12;12.70;1.00
2973;DHT22;1496;51.404;7.232;2024-03-02T11:33:38;12.80;1.00
2973;DHT22;1496;51.404;7.232;2024-03-02T11:36:06;12.90;1.00
2973;DHT22;1496;51.404;7.232;2024-03-02T11:38:33;12.90;1.00
2973;DHT22;1496;51.404;7.232;2024-03-02T11:41:00;13.00;1.00
2973;DHT22;1496;51.404;7.232;2024-03-02T11:43:28;12.80;1.00
2973;DHT22;1496;51.404;7.232;2024-03-02T11:45:58;12.90;1.00
2973;DHT22;1496;51.404;7.232;2024-03-02T11:48:25;12.80;1.00
2973;DHT22;1496;51.404;7.232;2024-03-02T11:50:51;13.00;1.00
2973;DHT22;1496;51.404;7.232;2024-03-02T11:53:17;13.00;1.00
2973;DHT22;1496;51.404;7.232;2024-03-02T11:55:45;13.00;1.00
2973;DHT22;1496;51.404;7.232;2024-03-02T11:58:14;13.10;1.00
2973;DHT22;1496;51.404;7.232;2024-03-02T12:00:40;13.50;1.00
2973;DHT22;1496;51.404;7.232;2024-03-02T12:03:07;13.40;1.00
2973;DHT22;1496;51.404;7.232;2024-03-02T12:05:35;13.60;1.00
2973;DHT22;1496;51.404;7.232;2024-03-02T12:08:05;13.50;1.00
2973;DHT22;1496;51.404;7.232;2024-03-02T12:10:35;13.40;1.00
2973;DHT22;1496;51.404;7.232;2024-03-02T12:13:06;13.10;1.00
2973;DHT22;1496;51.404;7.232;2024-03-02T12:15:37;13.10;1.00
2973;DHT22;1496;51.404;7.232;2024-03-02T12:18:03;13.00;1.00
2973;DHT22;1496;51.404;7.232;2024-03-02T12:20:30;13.00;1.00
2973;DHT22;1496;51.404;7.232;2024-03-02T12:23:01;12.90;1.00
2973;DHT22;1496;51.404;7.232;2024-03-02T12:25:28;12.80;1.00
2973;DHT22;1496;51.404;7.232;2024-03-02T12:27:56;12.90;1.00
2973;DHT22;1496;51.404;7.232;2024-03-02T12:30:22;13.20;1.00
2973;DHT22;1496;51.404;7.232;2024-03-02T12:32:48;13.30;1.00
2973;DHT22;1496;51.404;7.232;2024-03-02T12:35:14;13.30;1.00
2973;DHT22;1496;51.404;7.232;2024-03-02T12:37:48;13.20;1.00
2973;DHT22;1496;51.404;7.232;2024-03-02T12:40:15;13.30;1.00
2973;DHT22;1496;51.404;7.232;2024-03-02T12:42:44;13.40;1.00
2973;DHT22;1496;51.404;7.232;2024-03-02T12:45:10;13.30;1.00
2973;DHT22;1496;51.404;7.232;2024-03-02T12:47:37;13.30;1.00
2973;DHT22;1496;51.404;7.232;2024-03-02T12:50:03;13.30;1.00
2973;DHT22;1496;51.404;7.232;2024-03-02T12:52:30;13.30;1.00
2973;DHT22;1496;51.404;7.232;2024-03-02T12:54:56;13.20;1.00
2973;DHT22;1496;51.404;7.232;2024-03-02T12:57:28;13.10;1.00
2973;DHT22;1496;51.404;7.232;2024-03-02T13:00:02;13.00;1.00
2973;DHT22;1496;51.404;7.232;2024-03-02T13:02:35;12.90;1.00
2973;DHT22;1496;51.404;7.232;2024-03-02T13:05:01;12.90;1.00
2973;DHT22;1496;51.404;7.232;2024-03-02T13:07:27;13.00;1.00
2973;DHT22;1496;51.404;7.232;2024-03-02T13:09:55;13.00;1.00
2973;DHT22;1496;51.404;7.232;2024-03-02T13:12:22;13.00;1.00
2973;DHT22;1496;51.404;7.232;2024-03-02T13:14:49;12.80;1.00
2973;DHT22;1496;51.404;7.232;2024-03-02T13:17:17;12.70;1.00
2973;DHT22;1496;51.404;7.232;2024-03-02T13:20:11;12.70;1.00
2973;DHT22;1496;51.404;7.232;2024-03-02T13:22:39;12.60;1.00
2973;DHT22;1496;51.404;7.232;2024-03-02T13:25:05;12.70;1.00
2973;DHT22;1496;51.404;7.232;2024-03-02T13:27:33;12.70;1.00
2973;DHT22;1496;51.404;7.232;2024-03-02T13:29:59;12.80;1.00
2973;DHT22;1496;51.404;7.232;2024-03-02T13:32:25;12.80;1.00
2973;DHT22;1496;51.404;7.232;2024-03-02T13:34:51;12.80;1.00
2973;DHT22;1496;51.404;7.232;2024-03-02T13:37:17;12.80;1.00
2973;DHT22;1496;51.404;7.232;2024-03-02T13:39:43;12.70;1.00
2973;DHT22;1496;51.404;7.232;2024-03-02T13:42:09;12.70;1.00
2973;DHT22;1496;51.404;7.232;2024-03-02T13:44:37;12.70;1.00
2973;DHT22;1496;51.404;7.232;2024-03-02T13:47:03;12.70;1.00
2973;DHT22;1496;51.404;7.232;2024-03-02T13:49:30;12.70;1.00
2973;DHT22;1496;51.404;7.232;2024-03-02T13:52:06;12.70;1.00
2973;DHT22;1496;51.404;7.232;2024-03-02T13:54:44;12.70;1.00
2973;DHT22;1496;51.404;7.232;2024-03-02T13:57:11;12.70;1.00
2973;DHT22;1496;51.404;7.232;2024-03-02T13:59:37;12.80;1.00
2973;DHT22;1496;51.404;7.232;2024-03-02T14:02:04;12.80;1.00
2973;DHT22;1496;51.404;7.232;2024-03-02T14:04:33;12.80;1.00
2973;DHT22;1496;51.404;7.232;2024-03-02T14:06:59;12.90;1.00
2973;DHT22;1496;51.404;7.232;2024-03-02T14:09:25;12.90;1.00
2973;DHT22;1496;51.404;7.232;2024-03-02T14:11:53;12.90;1.00
2973;DHT22;1496;51.404;7.232;2024-03-02T14:14:18;12.90;1.00
2973;DHT22;1496;51.404;7.232;2024-03-02T14:16:44;12.90;1.00
2973;DHT22;1496;51.404;7.232;2024-03-02T14:19:11;12.90;1.00
2973;DHT22;1496;51.404;7.232;2024-03-02T14:21:38;13.00;1.00
2973;DHT22;1496;51.404;7.232;2024-03-02T14:24:03;13.00;1.00
2973;DHT22;1496;51.404;7.232;2024-03-02T14:26:29;13.00;1.00
2973;DHT22;1496;51.404;7.232;2024-03-02T14:28:55;13.00;1.00
2973;DHT22;1496;51.404;7.232;2024-03-02T14:31:21;13.10;1.00
2973;DHT22;1496;51.404;7.232;2024-03-02T14:33:46;13.00;1.00
2973;DHT22;1496;51.404;7.232;2024-03-02T14:36:13;13.00;1.00
2973;DHT22;1496;51.404;7.232;2024-03-02T14:38:39;12.90;1.00
2973;DHT22;1496;51.404;7.232;2024-03-02T14:41:05;12.80;1.00
2973;DHT22;1496;51.404;7.232;2024-03-02T14:43:31;12.80;1.00
2973;DHT22;1496;51.404;7.232;2024-03-02T14:45:56;12.90;1.00
2973;DHT22;1496;51.404;7.232;2024-03-02T14:48:24;12.90;1.00
2973;DHT22;1496;51.404;7.232;2024-03-02T14:50:50;12.90;1.00
2973;DHT22;1496;51.404;7.232;2024-03-02T14:53:16;12.90;1.00
2973;DHT22;1496;51.404;7.232;2024-03-02T14:55:42;12.80;1.00
2973;DHT22;1496;51.404;7.232;2024-03-02T14:58:07;12.80;1.00
2973;DHT22;1496;51.404;7.232;2024-03-02T15:00:35;12.80;1.00
2973;DHT22;1496;51.404;7.232;2024-03-02T15:03:01;12.80;1.00
2973;DHT22;1496;51.404;7.232;2024-03-02T15:05:27;12.80;1.00
2973;DHT22;1496;51.404;7.232;2024-03-02T15:07:52;12.70;1.00
2973;DHT22;1496;51.404;7.232;2024-03-02T15:10:18;12.70;1.00
2973;DHT22;1496;51.404;7.232;2024-03-02T15:12:44;12.70;1.00
2973;DHT22;1496;51.404;7.232;2024-03-02T15:15:10;12.70;1.00
2973;DHT22;1496;51.404;7.232;2024-03-02T15:17:37;12.70;1.00
2973;DHT22;1496;51.404;7.232;2024-03-02T15:20:03;12.70;1.00
2973;DHT22;1496;51.404;7.232;2024-03-02T15:22:32;12.70;1.00
2973;DHT22;1496;51.404;7.232;2024-03-02T15:24:58;12.80;1.00
2973;DHT22;1496;51.404;7.232;2024-03-02T15:27:24;12.80;1.00
2973;DHT22;1496;51.404;7.232;2024-03-02T15:29:50;12.80;1.00
2973;DHT22;1496;51.404;7.232;2024-03-02T15:32:17;12.80;1.00
2973;DHT22;1496;51.404;7.232;2024-03-02T15:34:49;12.80;1.00
2973;DHT22;1496;51.404;7.232;2024-03-02T15:37:15;12.70;1.00
2973;DHT22;1496;51.404;7.232;2024-03-02T15:39:40;12.70;1.00
2973;DHT22;1496;51.404;7.232;2024-03-02T15:42:06;12.80;1.00
2973;DHT22;1496;51.404;7.232;2024-03-02T15:44:32;12.70;1.00
2973;DHT22;1496;51.404;7.232;2024-03-02T15:46:58;12.80;1.00
2973;DHT22;1496;51.404;7.232;2024-03-02T15:49:24;12.70;1.00
2973;DHT22;1496;51.404;7.232;2024-03-02T15:52:09;12.80;1.00
2973;DHT22;1496;51.404;7.232;2024-03-02T15:54:35;12.80;1.00
2973;DHT22;1496;51.404;7.232;2024-03-02T15:57:01;12.80;1.00
2973;DHT22;1496;51.404;7.232;2024-03-02T15:59:27;12.80;1.00
2973;DHT22;1496;51.404;7.232;2024-03-02T16:01:53;12.80;1.00
2973;DHT22;1496;51.404;7.232;2024-03-02T16:04:19;12.80;1.00
2973;DHT22;1496;51.404;7.232;2024-03-02T16:06:45;12.80;1.00
2973;DHT22;1496;51.404;7.232;2024-03-02T16:09:11;12.80;1.00
2973;DHT22;1496;51.404;7.232;2024-03-02T16:11:37;12.80;1.00
2973;DHT22;1496;51.404;7.232;2024-03-02T16:14:05;12.80;1.00
2973;DHT22;1496;51.404;7.232;2024-03-02T16:16:31;12.80;1.00
2973;DHT22;1496;51.404;7.232;2024-03-02T16:18:58;12.80;1.00
2973;DHT22;1496;51.404;7.232;2024-03-02T16:21:28;12.80;1.00
2973;DHT22;1496;51.404;7.232;2024-03-02T16:23:54;12.80;1.00
2973;DHT22;1496;51.404;7.232;2024-03-02T16:26:19;12.80;1.00
2973;DHT22;1496;51.404;7.232;2024-03-02T16:28:45;12.80;1.00